sensor_id;sensor_type;location;lat;lon;timestamp;P1;durP1;ratioP1;P2;durP2;ratioP2
46006;SDS011;31738;50.188;8.524;2022-07-29T00:01:22;3.05;;;1.05;;
46006;SDS011;31738;50.188;8.524;2022-07-29T00:03:50;2.40;;;1.52;;
46006;SDS011;31738;50.188;8.524;2022-07-29T00:06:19;5.85;;;2.00;;
46006;SDS011;31738;50.188;8.524;2022-07-29T00:08:53;5.70;;;1.40;;
46006;SDS011;31738;50.188;8.524;2022-07-29T00:11:19;3.53;;;1.75;;
46006;SDS011;31738;50.188;8.524;2022-07-29T00:13:47;3.38;;;1.60;;
46006;SDS011;31738;50.188;8.524;2022-07-29T00:16:12;5.25;;;1.73;;
46006;SDS011;31738;50.188;8.524;2022-07-29T00:18:38;2.63;;;1.60;;
46006;SDS011;31738;50.188;8.524;2022-07-29T00:21:04;3.10;;;1.70;;
46006;SDS011;31738;50.188;8.524;2022-07-29T00:23:29;3.40;;;1.90;;
46006;SDS011;31738;50.188;8.524;2022-07-29T00:25:56;4.60;;;1.70;;
46006;SDS011;31738;50.188;8.524;2022-07-29T00:28:22;3.72;;;1.75;;
46006;SDS011;31738;50.188;8.524;2022-07-29T00:30:47;4.43;;;1.73;;
46006;SDS011;31738;50.188;8.524;2022-07-29T00:33:13;6.80;;;1.90;;
46006;SDS011;31738;50.188;8.524;2022-07-29T00:35:38;7.70;;;1.90;;
46006;SDS011;31738;50.188;8.524;2022-07-29T00:38:11;5.97;;;1.90;;
46006;SDS011;31738;50.188;8.524;2022-07-29T00:40:40;4.72;;;2.22;;
46006;SDS011;31738;50.188;8.524;2022-07-29T00:43:06;3.22;;;1.73;;
46006;SDS011;31738;50.188;8.524;2022-07-29T00:45:32;5.25;;;1.88;;
46006;SDS011;31738;50.188;8.524;2022-07-29T00:47:57;4.38;;;2.10;;
46006;SDS011;31738;50.188;8.524;2022-07-29T00:50:23;3.47;;;2.10;;
46006;SDS011;31738;50.188;8.524;2022-07-29T00:52:48;4.75;;;2.08;;
46006;SDS011;31738;50.188;8.524;2022-07-29T00:55:16;5.88;;;1.83;;
46006;SDS011;31738;50.188;8.524;2022-07-29T00:57:42;5.15;;;2.00;;
46006;SDS011;31738;50.188;8.524;2022-07-29T01:00:13;4.88;;;2.08;;
46006;SDS011;31738;50.188;8.524;2022-07-29T01:02:42;4.63;;;2.08;;
46006;SDS011;31738;50.188;8.524;2022-07-29T01:05:08;2.67;;;2.30;;
46006;SDS011;31738;50.188;8.524;2022-07-29T01:07:36;6.40;;;2.35;;
46006;SDS011;31738;50.188;8.524;2022-07-29T01:10:06;4.95;;;2.15;;
46006;SDS011;31738;50.188;8.524;2022-07-29T01:12:34;3.70;;;2.28;;
46006;SDS011;31738;50.188;8.524;2022-07-29T01:15:03;3.63;;;2.63;;
46006;SDS011;31738;50.188;8.524;2022-07-29T01:17:36;4.60;;;2.45;;
46006;SDS011;31738;50.188;8.524;2022-07-29T01:26:09;4.35;;;2.53;;
46006;SDS011;31738;50.188;8.524;2022-07-29T01:28:44;4.63;;;2.28;;
46006;SDS011;31738;50.188;8.524;2022-07-29T01:31:18;4.82;;;2.72;;
46006;SDS011;31738;50.188;8.524;2022-07-29T01:33:49;6.35;;;2.60;;
46006;SDS011;31738;50.188;8.524;2022-07-29T01:36:23;8.30;;;2.42;;
46006;SDS011;31738;50.188;8.524;2022-07-29T01:39:27;4.30;;;2.50;;
46006;SDS011;31738;50.188;8.524;2022-07-29T01:44:41;2.55;;;2.17;;
46006;SDS011;31738;50.188;8.524;2022-07-29T01:47:15;3.90;;;2.20;;
46006;SDS011;31738;50.188;8.524;2022-07-29T01:49:50;5.80;;;2.40;;
46006;SDS011;31738;50.188;8.524;2022-07-29T01:52:31;4.03;;;2.57;;
46006;SDS011;31738;50.188;8.524;2022-07-29T01:55:04;3.95;;;2.25;;
46006;SDS011;31738;50.188;8.524;2022-07-29T01:57:35;6.10;;;2.10;;
46006;SDS011;31738;50.188;8.524;2022-07-29T02:00:04;4.93;;;2.40;;
46006;SDS011;31738;50.188;8.524;2022-07-29T02:02:37;3.30;;;2.40;;
46006;SDS011;31738;50.188;8.524;2022-07-29T02:05:06;4.35;;;2.38;;
46006;SDS011;31738;50.188;8.524;2022-07-29T02:07:35;7.15;;;2.85;;
46006;SDS011;31738;50.188;8.524;2022-07-29T02:10:02;5.47;;;2.42;;
46006;SDS011;31738;50.188;8.524;2022-07-29T02:12:29;5.13;;;2.33;;
46006;SDS011;31738;50.188;8.524;2022-07-29T02:14:58;4.55;;;2.50;;
46006;SDS011;31738;50.188;8.524;2022-07-29T02:17:31;6.00;;;2.63;;
46006;SDS011;31738;50.188;8.524;2022-07-29T02:20:01;4.15;;;2.30;;
46006;SDS011;31738;50.188;8.524;2022-07-29T02:22:29;3.85;;;2.50;;
46006;SDS011;31738;50.188;8.524;2022-07-29T02:24:57;2.85;;;2.20;;
46006;SDS011;31738;50.188;8.524;2022-07-29T02:27:23;3.55;;;2.63;;
46006;SDS011;31738;50.188;8.524;2022-07-29T02:29:52;4.32;;;2.60;;
46006;SDS011;31738;50.188;8.524;2022-07-29T02:32:19;3.65;;;2.40;;
46006;SDS011;31738;50.188;8.524;2022-07-29T02:34:47;3.78;;;2.55;;
46006;SDS011;31738;50.188;8.524;2022-07-29T02:37:14;5.10;;;2.47;;
46006;SDS011;31738;50.188;8.524;2022-07-29T02:39:43;4.47;;;2.30;;
46006;SDS011;31738;50.188;8.524;2022-07-29T02:42:11;3.10;;;2.20;;
46006;SDS011;31738;50.188;8.524;2022-07-29T02:44:40;8.88;;;2.80;;
46006;SDS011;31738;50.188;8.524;2022-07-29T02:49:53;5.22;;;2.90;;
46006;SDS011;31738;50.188;8.524;2022-07-29T02:55:01;5.82;;;3.15;;
46006;SDS011;31738;50.188;8.524;2022-07-29T02:57:51;4.95;;;2.58;;
46006;SDS011;31738;50.188;8.524;2022-07-29T03:00:31;5.68;;;2.90;;
46006;SDS011;31738;50.188;8.524;2022-07-29T03:03:01;5.07;;;3.08;;
46006;SDS011;31738;50.188;8.524;2022-07-29T03:05:30;5.43;;;3.03;;
46006;SDS011;31738;50.188;8.524;2022-07-29T03:08:00;6.32;;;3.17;;
46006;SDS011;31738;50.188;8.524;2022-07-29T03:10:28;4.25;;;3.00;;
46006;SDS011;31738;50.188;8.524;2022-07-29T03:12:55;6.00;;;3.13;;
46006;SDS011;31738;50.188;8.524;2022-07-29T03:15:22;4.35;;;3.33;;
46006;SDS011;31738;50.188;8.524;2022-07-29T03:17:49;10.27;;;3.35;;
46006;SDS011;31738;50.188;8.524;2022-07-29T03:20:15;6.40;;;3.50;;
46006;SDS011;31738;50.188;8.524;2022-07-29T03:22:41;6.03;;;3.25;;
46006;SDS011;31738;50.188;8.524;2022-07-29T03:25:12;7.88;;;3.53;;
46006;SDS011;31738;50.188;8.524;2022-07-29T03:27:38;5.30;;;3.30;;
46006;SDS011;31738;50.188;8.524;2022-07-29T03:30:05;7.68;;;4.10;;
46006;SDS011;31738;50.188;8.524;2022-07-29T03:32:31;8.77;;;3.30;;
46006;SDS011;31738;50.188;8.524;2022-07-29T03:34:57;15.07;;;4.35;;
46006;SDS011;31738;50.188;8.524;2022-07-29T03:37:22;8.02;;;3.90;;
46006;SDS011;31738;50.188;8.524;2022-07-29T03:39:48;13.13;;;4.50;;
46006;SDS011;31738;50.188;8.524;2022-07-29T03:42:16;7.93;;;4.10;;
46006;SDS011;31738;50.188;8.524;2022-07-29T03:44:45;9.38;;;4.32;;
46006;SDS011;31738;50.188;8.524;2022-07-29T03:47:14;7.18;;;4.15;;
46006;SDS011;31738;50.188;8.524;2022-07-29T03:49:41;9.85;;;3.30;;
46006;SDS011;31738;50.188;8.524;2022-07-29T03:52:09;7.20;;;3.28;;
46006;SDS011;31738;50.188;8.524;2022-07-29T03:54:35;5.95;;;3.83;;
46006;SDS011;31738;50.188;8.524;2022-07-29T03:57:01;8.73;;;4.50;;
46006;SDS011;31738;50.188;8.524;2022-07-29T03:59:27;6.78;;;4.20;;
46006;SDS011;31738;50.188;8.524;2022-07-29T04:01:52;5.60;;;3.85;;
46006;SDS011;31738;50.188;8.524;2022-07-29T04:04:21;5.55;;;3.80;;
46006;SDS011;31738;50.188;8.524;2022-07-29T04:06:46;6.05;;;3.80;;
46006;SDS011;31738;50.188;8.524;2022-07-29T04:09:12;7.13;;;3.90;;
46006;SDS011;31738;50.188;8.524;2022-07-29T04:11:38;8.45;;;3.83;;
46006;SDS011;31738;50.188;8.524;2022-07-29T04:14:05;7.47;;;3.80;;
46006;SDS011;31738;50.188;8.524;2022-07-29T04:16:31;6.63;;;3.72;;
46006;SDS011;31738;50.188;8.524;2022-07-29T04:18:56;12.13;;;3.58;;
46006;SDS011;31738;50.188;8.524;2022-07-29T04:21:22;9.82;;;3.78;;
46006;SDS011;31738;50.188;8.524;2022-07-29T04:23:47;9.13;;;3.95;;
46006;SDS011;31738;50.188;8.524;2022-07-29T04:26:16;8.10;;;3.83;;
46006;SDS011;31738;50.188;8.524;2022-07-29T04:28:42;6.88;;;3.80;;
46006;SDS011;31738;50.188;8.524;2022-07-29T04:31:08;5.25;;;3.35;;
46006;SDS011;31738;50.188;8.524;2022-07-29T04:33:34;7.60;;;4.38;;
46006;SDS011;31738;50.188;8.524;2022-07-29T04:35:59;7.68;;;3.55;;
46006;SDS011;31738;50.188;8.524;2022-07-29T04:38:25;5.40;;;3.63;;
46006;SDS011;31738;50.188;8.524;2022-07-29T04:40:50;8.50;;;4.50;;
46006;SDS011;31738;50.188;8.524;2022-07-29T04:43:16;6.00;;;3.08;;
46006;SDS011;31738;50.188;8.524;2022-07-29T04:45:41;8.75;;;3.60;;
46006;SDS011;31738;50.188;8.524;2022-07-29T04:48:07;7.57;;;3.80;;
46006;SDS011;31738;50.188;8.524;2022-07-29T04:50:32;11.18;;;4.10;;
46006;SDS011;31738;50.188;8.524;2022-07-29T04:52:58;6.68;;;3.15;;
46006;SDS011;31738;50.188;8.524;2022-07-29T04:55:23;5.45;;;3.30;;
46006;SDS011;31738;50.188;8.524;2022-07-29T04:57:50;9.13;;;3.45;;
46006;SDS011;31738;50.188;8.524;2022-07-29T05:00:15;5.68;;;3.33;;
46006;SDS011;31738;50.188;8.524;2022-07-29T05:02:41;8.77;;;3.50;;
46006;SDS011;31738;50.188;8.524;2022-07-29T05:05:06;8.50;;;3.13;;
46006;SDS011;31738;50.188;8.524;2022-07-29T05:07:32;5.85;;;3.35;;
46006;SDS011;31738;50.188;8.524;2022-07-29T05:09:58;5.57;;;3.03;;
46006;SDS011;31738;50.188;8.524;2022-07-29T05:12:24;5.38;;;3.30;;
46006;SDS011;31738;50.188;8.524;2022-07-29T05:14:49;6.55;;;3.25;;
46006;SDS011;31738;50.188;8.524;2022-07-29T05:17:15;5.47;;;3.22;;
46006;SDS011;31738;50.188;8.524;2022-07-29T05:19:40;4.82;;;3.13;;
46006;SDS011;31738;50.188;8.524;2022-07-29T05:22:06;5.35;;;3.35;;
46006;SDS011;31738;50.188;8.524;2022-07-29T05:24:31;5.63;;;3.17;;
46006;SDS011;31738;50.188;8.524;2022-07-29T05:26:57;7.10;;;3.53;;
46006;SDS011;31738;50.188;8.524;2022-07-29T05:29:22;5.32;;;3.15;;
46006;SDS011;31738;50.188;8.524;2022-07-29T05:31:48;6.28;;;3.17;;
46006;SDS011;31738;50.188;8.524;2022-07-29T05:34:13;7.03;;;3.70;;
46006;SDS011;31738;50.188;8.524;2022-07-29T05:36:38;5.40;;;3.17;;
46006;SDS011;31738;50.188;8.524;2022-07-29T05:39:04;5.95;;;3.25;;
46006;SDS011;31738;50.188;8.524;2022-07-29T05:41:32;8.02;;;3.22;;
46006;SDS011;31738;50.188;8.524;2022-07-29T05:43:58;8.18;;;3.92;;
46006;SDS011;31738;50.188;8.524;2022-07-29T05:46:23;6.72;;;3.13;;
46006;SDS011;31738;50.188;8.524;2022-07-29T05:48:49;5.70;;;3.03;;
46006;SDS011;31738;50.188;8.524;2022-07-29T05:51:14;6.43;;;3.33;;
46006;SDS011;31738;50.188;8.524;2022-07-29T05:53:40;6.57;;;3.20;;
46006;SDS011;31738;50.188;8.524;2022-07-29T05:56:06;7.80;;;3.10;;
46006;SDS011;31738;50.188;8.524;2022-07-29T05:58:32;5.95;;;2.67;;
46006;SDS011;31738;50.188;8.524;2022-07-29T06:00:58;8.93;;;3.30;;
46006;SDS011;31738;50.188;8.524;2022-07-29T06:03:26;6.82;;;3.08;;
46006;SDS011;31738;50.188;8.524;2022-07-29T06:05:52;7.80;;;3.15;;
46006;SDS011;31738;50.188;8.524;2022-07-29T06:08:18;6.95;;;2.88;;
46006;SDS011;31738;50.188;8.524;2022-07-29T06:10:44;8.13;;;2.72;;
46006;SDS011;31738;50.188;8.524;2022-07-29T06:13:10;6.70;;;3.22;;
46006;SDS011;31738;50.188;8.524;2022-07-29T06:15:37;9.10;;;3.28;;
46006;SDS011;31738;50.188;8.524;2022-07-29T06:18:03;8.75;;;3.00;;
46006;SDS011;31738;50.188;8.524;2022-07-29T06:20:29;6.88;;;2.85;;
46006;SDS011;31738;50.188;8.524;2022-07-29T06:22:58;7.70;;;2.72;;
46006;SDS011;31738;50.188;8.524;2022-07-29T06:25:24;4.82;;;2.80;;
46006;SDS011;31738;50.188;8.524;2022-07-29T06:27:52;4.65;;;2.80;;
46006;SDS011;31738;50.188;8.524;2022-07-29T06:30:21;5.03;;;2.80;;
46006;SDS011;31738;50.188;8.524;2022-07-29T06:32:47;5.32;;;3.20;;
46006;SDS011;31738;50.188;8.524;2022-07-29T06:35:13;8.15;;;2.88;;
46006;SDS011;31738;50.188;8.524;2022-07-29T06:37:41;8.45;;;3.03;;
46006;SDS011;31738;50.188;8.524;2022-07-29T06:40:06;4.85;;;3.10;;
46006;SDS011;31738;50.188;8.524;2022-07-29T06:42:51;4.65;;;2.80;;
46006;SDS011;31738;50.188;8.524;2022-07-29T06:45:19;4.78;;;2.75;;
46006;SDS011;31738;50.188;8.524;2022-07-29T06:47:52;7.93;;;3.10;;
46006;SDS011;31738;50.188;8.524;2022-07-29T06:50:18;6.82;;;2.97;;
46006;SDS011;31738;50.188;8.524;2022-07-29T06:52:44;7.38;;;3.13;;
46006;SDS011;31738;50.188;8.524;2022-07-29T06:55:14;6.68;;;3.17;;
46006;SDS011;31738;50.188;8.524;2022-07-29T06:57:40;10.13;;;3.22;;
46006;SDS011;31738;50.188;8.524;2022-07-29T07:00:16;6.35;;;2.95;;
46006;SDS011;31738;50.188;8.524;2022-07-29T07:05:25;4.45;;;2.63;;
46006;SDS011;31738;50.188;8.524;2022-07-29T07:07:50;5.60;;;2.80;;
46006;SDS011;31738;50.188;8.524;2022-07-29T07:10:21;4.53;;;2.53;;
46006;SDS011;31738;50.188;8.524;2022-07-29T07:12:50;4.57;;;2.70;;
46006;SDS011;31738;50.188;8.524;2022-07-29T07:15:30;5.50;;;2.42;;
46006;SDS011;31738;50.188;8.524;2022-07-29T07:18:05;3.20;;;2.50;;
46006;SDS011;31738;50.188;8.524;2022-07-29T07:20:34;5.00;;;2.17;;
46006;SDS011;31738;50.188;8.524;2022-07-29T07:23:00;7.45;;;2.45;;
46006;SDS011;31738;50.188;8.524;2022-07-29T07:25:30;3.75;;;2.65;;
46006;SDS011;31738;50.188;8.524;2022-07-29T07:28:02;5.97;;;2.67;;
46006;SDS011;31738;50.188;8.524;2022-07-29T07:30:35;6.20;;;2.55;;
46006;SDS011;31738;50.188;8.524;2022-07-29T07:33:10;7.63;;;2.70;;
46006;SDS011;31738;50.188;8.524;2022-07-29T07:35:45;3.15;;;2.22;;
46006;SDS011;31738;50.188;8.524;2022-07-29T07:38:16;3.63;;;2.42;;
46006;SDS011;31738;50.188;8.524;2022-07-29T07:40:47;6.80;;;2.45;;
46006;SDS011;31738;50.188;8.524;2022-07-29T07:43:21;3.70;;;2.47;;
46006;SDS011;31738;50.188;8.524;2022-07-29T07:48:24;6.65;;;2.45;;
46006;SDS011;31738;50.188;8.524;2022-07-29T07:50:55;6.13;;;2.42;;
46006;SDS011;31738;50.188;8.524;2022-07-29T07:53:35;4.78;;;2.25;;
46006;SDS011;31738;50.188;8.524;2022-07-29T07:56:39;4.10;;;2.25;;
46006;SDS011;31738;50.188;8.524;2022-07-29T07:59:10;7.30;;;2.20;;
46006;SDS011;31738;50.188;8.524;2022-07-29T08:04:35;4.70;;;2.42;;
46006;SDS011;31738;50.188;8.524;2022-07-29T08:07:01;7.10;;;2.72;;
46006;SDS011;31738;50.188;8.524;2022-07-29T08:09:40;4.45;;;2.47;;
46006;SDS011;31738;50.188;8.524;2022-07-29T08:12:06;4.63;;;2.25;;
46006;SDS011;31738;50.188;8.524;2022-07-29T08:14:45;6.70;;;2.60;;
46006;SDS011;31738;50.188;8.524;2022-07-29T08:17:15;2.60;;;1.88;;
46006;SDS011;31738;50.188;8.524;2022-07-29T08:19:41;3.42;;;2.50;;
46006;SDS011;31738;50.188;8.524;2022-07-29T08:22:20;9.27;;;2.45;;
46006;SDS011;31738;50.188;8.524;2022-07-29T08:24:57;3.15;;;1.92;;
46006;SDS011;31738;50.188;8.524;2022-07-29T08:27:32;6.80;;;2.67;;
46006;SDS011;31738;50.188;8.524;2022-07-29T08:30:01;5.28;;;2.38;;
46006;SDS011;31738;50.188;8.524;2022-07-29T08:32:31;7.28;;;2.72;;
46006;SDS011;31738;50.188;8.524;2022-07-29T08:35:11;4.15;;;2.58;;
46006;SDS011;31738;50.188;8.524;2022-07-29T08:37:41;5.88;;;2.50;;
46006;SDS011;31738;50.188;8.524;2022-07-29T08:40:09;7.15;;;2.90;;
46006;SDS011;31738;50.188;8.524;2022-07-29T08:42:51;7.60;;;2.83;;
46006;SDS011;31738;50.188;8.524;2022-07-29T08:45:28;6.78;;;2.70;;
46006;SDS011;31738;50.188;8.524;2022-07-29T08:48:29;5.43;;;2.45;;
46006;SDS011;31738;50.188;8.524;2022-07-29T08:50:59;6.80;;;2.50;;
46006;SDS011;31738;50.188;8.524;2022-07-29T08:53:32;14.15;;;2.60;;
46006;SDS011;31738;50.188;8.524;2022-07-29T08:56:23;3.85;;;2.33;;
46006;SDS011;31738;50.188;8.524;2022-07-29T08:58:53;7.45;;;2.47;;
46006;SDS011;31738;50.188;8.524;2022-07-29T09:01:50;3.55;;;2.25;;
46006;SDS011;31738;50.188;8.524;2022-07-29T09:04:21;4.60;;;2.90;;
46006;SDS011;31738;50.188;8.524;2022-07-29T09:07:17;3.67;;;2.28;;
46006;SDS011;31738;50.188;8.524;2022-07-29T09:09:46;6.15;;;2.72;;
46006;SDS011;31738;50.188;8.524;2022-07-29T09:12:12;6.82;;;2.63;;
46006;SDS011;31738;50.188;8.524;2022-07-29T09:14:46;4.40;;;2.30;;
46006;SDS011;31738;50.188;8.524;2022-07-29T09:17:17;5.43;;;2.40;;
46006;SDS011;31738;50.188;8.524;2022-07-29T09:20:15;4.18;;;2.38;;
46006;SDS011;31738;50.188;8.524;2022-07-29T09:22:50;4.47;;;2.63;;
46006;SDS011;31738;50.188;8.524;2022-07-29T09:28:21;8.52;;;2.50;;
46006;SDS011;31738;50.188;8.524;2022-07-29T09:31:40;3.45;;;2.63;;
46006;SDS011;31738;50.188;8.524;2022-07-29T09:34:27;5.82;;;2.90;;
46006;SDS011;31738;50.188;8.524;2022-07-29T09:36:56;4.15;;;2.53;;
46006;SDS011;31738;50.188;8.524;2022-07-29T09:39:38;5.68;;;2.47;;
46006;SDS011;31738;50.188;8.524;2022-07-29T09:42:17;7.18;;;2.92;;
46006;SDS011;31738;50.188;8.524;2022-07-29T09:47:46;5.32;;;2.50;;
46006;SDS011;31738;50.188;8.524;2022-07-29T09:50:21;7.63;;;2.50;;
46006;SDS011;31738;50.188;8.524;2022-07-29T09:52:53;6.22;;;3.20;;
46006;SDS011;31738;50.188;8.524;2022-07-29T09:55:25;6.97;;;2.80;;
46006;SDS011;31738;50.188;8.524;2022-07-29T09:58:16;3.85;;;2.67;;
46006;SDS011;31738;50.188;8.524;2022-07-29T10:00:53;5.25;;;2.45;;
46006;SDS011;31738;50.188;8.524;2022-07-29T10:03:30;6.13;;;2.90;;
46006;SDS011;31738;50.188;8.524;2022-07-29T10:06:11;10.02;;;3.10;;
46006;SDS011;31738;50.188;8.524;2022-07-29T10:11:21;5.05;;;2.80;;
46006;SDS011;31738;50.188;8.524;2022-07-29T10:13:50;6.18;;;2.95;;
46006;SDS011;31738;50.188;8.524;2022-07-29T10:16:16;4.40;;;2.58;;
46006;SDS011;31738;50.188;8.524;2022-07-29T10:18:48;5.47;;;2.88;;
46006;SDS011;31738;50.188;8.524;2022-07-29T10:21:17;5.57;;;2.78;;
46006;SDS011;31738;50.188;8.524;2022-07-29T10:23:48;4.82;;;2.65;;
46006;SDS011;31738;50.188;8.524;2022-07-29T10:26:20;5.30;;;3.10;;
46006;SDS011;31738;50.188;8.524;2022-07-29T10:28:49;6.13;;;3.10;;
46006;SDS011;31738;50.188;8.524;2022-07-29T10:32:02;3.78;;;2.80;;
46006;SDS011;31738;50.188;8.524;2022-07-29T10:34:30;5.28;;;3.00;;
46006;SDS011;31738;50.188;8.524;2022-07-29T10:43:41;5.22;;;2.63;;
46006;SDS011;31738;50.188;8.524;2022-07-29T10:46:17;5.72;;;3.15;;
46006;SDS011;31738;50.188;8.524;2022-07-29T10:51:57;5.35;;;2.85;;
46006;SDS011;31738;50.188;8.524;2022-07-29T10:54:40;4.47;;;2.97;;
46006;SDS011;31738;50.188;8.524;2022-07-29T10:57:38;4.20;;;2.90;;
46006;SDS011;31738;50.188;8.524;2022-07-29T11:05:17;7.43;;;2.95;;
46006;SDS011;31738;50.188;8.524;2022-07-29T11:13:49;4.10;;;2.50;;
46006;SDS011;31738;50.188;8.524;2022-07-29T11:16:22;6.57;;;2.75;;
46006;SDS011;31738;50.188;8.524;2022-07-29T11:21:36;4.70;;;2.80;;
46006;SDS011;31738;50.188;8.524;2022-07-29T11:24:19;4.63;;;2.72;;
46006;SDS011;31738;50.188;8.524;2022-07-29T11:27:07;6.65;;;3.10;;
46006;SDS011;31738;50.188;8.524;2022-07-29T11:30:08;4.32;;;2.95;;
46006;SDS011;31738;50.188;8.524;2022-07-29T11:32:43;4.50;;;2.83;;
46006;SDS011;31738;50.188;8.524;2022-07-29T11:35:18;4.60;;;3.15;;
46006;SDS011;31738;50.188;8.524;2022-07-29T11:43:54;3.45;;;2.83;;
46006;SDS011;31738;50.188;8.524;2022-07-29T11:46:46;6.93;;;3.15;;
46006;SDS011;31738;50.188;8.524;2022-07-29T11:49:25;4.60;;;2.55;;
46006;SDS011;31738;50.188;8.524;2022-07-29T11:51:58;8.90;;;2.50;;
46006;SDS011;31738;50.188;8.524;2022-07-29T11:54:31;4.43;;;3.03;;
46006;SDS011;31738;50.188;8.524;2022-07-29T11:57:06;4.05;;;2.72;;
46006;SDS011;31738;50.188;8.524;2022-07-29T11:59:39;3.33;;;3.03;;
46006;SDS011;31738;50.188;8.524;2022-07-29T12:02:11;7.45;;;3.08;;
46006;SDS011;31738;50.188;8.524;2022-07-29T12:04:57;5.25;;;3.08;;
46006;SDS011;31738;50.188;8.524;2022-07-29T12:07:31;5.45;;;2.70;;
46006;SDS011;31738;50.188;8.524;2022-07-29T12:09:58;4.20;;;2.80;;
46006;SDS011;31738;50.188;8.524;2022-07-29T12:12:27;4.38;;;2.92;;
46006;SDS011;31738;50.188;8.524;2022-07-29T12:15:11;5.47;;;2.90;;
46006;SDS011;31738;50.188;8.524;2022-07-29T12:17:49;3.85;;;2.80;;
46006;SDS011;31738;50.188;8.524;2022-07-29T12:20:25;3.53;;;2.85;;
46006;SDS011;31738;50.188;8.524;2022-07-29T12:22:53;9.00;;;3.00;;
46006;SDS011;31738;50.188;8.524;2022-07-29T12:25:19;6.25;;;2.88;;
46006;SDS011;31738;50.188;8.524;2022-07-29T12:27:46;4.32;;;2.92;;
46006;SDS011;31738;50.188;8.524;2022-07-29T12:30:13;4.15;;;3.10;;
46006;SDS011;31738;50.188;8.524;2022-07-29T12:32:44;5.22;;;3.13;;
46006;SDS011;31738;50.188;8.524;2022-07-29T12:35:13;3.28;;;2.85;;
46006;SDS011;31738;50.188;8.524;2022-07-29T12:37:40;6.13;;;2.90;;
46006;SDS011;31738;50.188;8.524;2022-07-29T12:40:07;3.33;;;2.75;;
46006;SDS011;31738;50.188;8.524;2022-07-29T12:42:34;5.90;;;3.00;;
46006;SDS011;31738;50.188;8.524;2022-07-29T12:45:00;4.80;;;2.80;;
46006;SDS011;31738;50.188;8.524;2022-07-29T12:47:26;7.50;;;2.78;;
46006;SDS011;31738;50.188;8.524;2022-07-29T12:50:06;4.95;;;2.88;;
46006;SDS011;31738;50.188;8.524;2022-07-29T12:55:02;7.43;;;3.45;;
46006;SDS011;31738;50.188;8.524;2022-07-29T12:57:29;3.38;;;3.00;;
46006;SDS011;31738;50.188;8.524;2022-07-29T13:00:05;5.15;;;3.10;;
46006;SDS011;31738;50.188;8.524;2022-07-29T13:02:33;9.98;;;2.92;;
46006;SDS011;31738;50.188;8.524;2022-07-29T13:05:00;7.13;;;2.90;;
46006;SDS011;31738;50.188;8.524;2022-07-29T13:07:27;5.55;;;2.80;;
46006;SDS011;31738;50.188;8.524;2022-07-29T13:09:54;4.60;;;2.92;;
46006;SDS011;31738;50.188;8.524;2022-07-29T13:12:36;4.68;;;3.40;;
46006;SDS011;31738;50.188;8.524;2022-07-29T13:15:11;3.75;;;2.85;;
46006;SDS011;31738;50.188;8.524;2022-07-29T13:17:42;3.70;;;3.13;;
46006;SDS011;31738;50.188;8.524;2022-07-29T13:20:12;4.63;;;2.95;;
46006;SDS011;31738;50.188;8.524;2022-07-29T13:22:39;4.00;;;2.83;;
46006;SDS011;31738;50.188;8.524;2022-07-29T13:25:07;5.47;;;3.22;;
46006;SDS011;31738;50.188;8.524;2022-07-29T13:27:34;7.05;;;2.92;;
46006;SDS011;31738;50.188;8.524;2022-07-29T13:30:03;4.05;;;3.20;;
46006;SDS011;31738;50.188;8.524;2022-07-29T13:32:30;4.68;;;3.30;;
46006;SDS011;31738;50.188;8.524;2022-07-29T13:34:57;4.25;;;3.05;;
46006;SDS011;31738;50.188;8.524;2022-07-29T13:37:25;4.47;;;3.13;;
46006;SDS011;31738;50.188;8.524;2022-07-29T13:39:51;5.47;;;3.05;;
46006;SDS011;31738;50.188;8.524;2022-07-29T13:42:18;5.55;;;2.83;;
46006;SDS011;31738;50.188;8.524;2022-07-29T13:44:43;6.10;;;3.17;;
46006;SDS011;31738;50.188;8.524;2022-07-29T13:47:09;4.18;;;2.92;;
46006;SDS011;31738;50.188;8.524;2022-07-29T13:49:34;4.25;;;2.92;;
46006;SDS011;31738;50.188;8.524;2022-07-29T13:52:00;7.32;;;2.78;;
46006;SDS011;31738;50.188;8.524;2022-07-29T13:54:26;3.83;;;3.20;;
46006;SDS011;31738;50.188;8.524;2022-07-29T13:56:51;3.90;;;3.00;;
46006;SDS011;31738;50.188;8.524;2022-07-29T13:59:17;4.40;;;2.90;;
46006;SDS011;31738;50.188;8.524;2022-07-29T14:01:43;5.50;;;3.20;;
46006;SDS011;31738;50.188;8.524;2022-07-29T14:04:08;4.65;;;3.05;;
46006;SDS011;31738;50.188;8.524;2022-07-29T14:06:36;6.43;;;3.28;;
46006;SDS011;31738;50.188;8.524;2022-07-29T14:09:02;5.20;;;3.22;;
46006;SDS011;31738;50.188;8.524;2022-07-29T14:11:31;4.35;;;2.92;;
46006;SDS011;31738;50.188;8.524;2022-07-29T14:13:57;6.10;;;3.20;;
46006;SDS011;31738;50.188;8.524;2022-07-29T14:16:22;3.78;;;2.80;;
46006;SDS011;31738;50.188;8.524;2022-07-29T14:18:47;5.18;;;3.20;;
46006;SDS011;31738;50.188;8.524;2022-07-29T14:21:13;4.53;;;3.40;;
46006;SDS011;31738;50.188;8.524;2022-07-29T14:23:38;3.92;;;3.53;;
46006;SDS011;31738;50.188;8.524;2022-07-29T14:26:04;5.80;;;3.63;;
46006;SDS011;31738;50.188;8.524;2022-07-29T14:28:29;5.53;;;3.80;;
46006;SDS011;31738;50.188;8.524;2022-07-29T14:30:54;5.75;;;3.47;;
46006;SDS011;31738;50.188;8.524;2022-07-29T14:33:20;6.47;;;3.70;;
46006;SDS011;31738;50.188;8.524;2022-07-29T14:35:45;5.30;;;3.20;;
46006;SDS011;31738;50.188;8.524;2022-07-29T14:38:11;8.27;;;4.05;;
46006;SDS011;31738;50.188;8.524;2022-07-29T14:40:36;5.35;;;3.80;;
46006;SDS011;31738;50.188;8.524;2022-07-29T14:43:02;4.78;;;3.63;;
46006;SDS011;31738;50.188;8.524;2022-07-29T14:45:28;7.10;;;3.28;;
46006;SDS011;31738;50.188;8.524;2022-07-29T14:47:54;8.35;;;3.30;;
46006;SDS011;31738;50.188;8.524;2022-07-29T14:50:19;3.25;;;2.45;;
46006;SDS011;31738;50.188;8.524;2022-07-29T14:52:45;2.25;;;1.67;;
46006;SDS011;31738;50.188;8.524;2022-07-29T14:55:11;3.92;;;1.60;;
46006;SDS011;31738;50.188;8.524;2022-07-29T14:57:37;2.17;;;1.30;;
46006;SDS011;31738;50.188;8.524;2022-07-29T15:00:05;1.50;;;1.30;;
46006;SDS011;31738;50.188;8.524;2022-07-29T15:02:32;1.30;;;1.20;;
46006;SDS011;31738;50.188;8.524;2022-07-29T15:04:58;2.80;;;1.38;;
46006;SDS011;31738;50.188;8.524;2022-07-29T15:07:23;1.90;;;1.30;;
46006;SDS011;31738;50.188;8.524;2022-07-29T15:09:49;2.53;;;1.30;;
46006;SDS011;31738;50.188;8.524;2022-07-29T15:12:14;1.50;;;1.00;;
46006;SDS011;31738;50.188;8.524;2022-07-29T15:14:40;1.20;;;0.90;;
46006;SDS011;31738;50.188;8.524;2022-07-29T15:17:06;1.23;;;1.13;;
46006;SDS011;31738;50.188;8.524;2022-07-29T15:19:31;1.98;;;1.05;;
46006;SDS011;31738;50.188;8.524;2022-07-29T15:21:57;1.42;;;1.10;;
46006;SDS011;31738;50.188;8.524;2022-07-29T15:24:22;2.88;;;1.10;;
46006;SDS011;31738;50.188;8.524;2022-07-29T15:26:48;2.78;;;1.00;;
46006;SDS011;31738;50.188;8.524;2022-07-29T15:29:14;1.20;;;1.10;;
46006;SDS011;31738;50.188;8.524;2022-07-29T15:31:39;2.03;;;1.20;;
46006;SDS011;31738;50.188;8.524;2022-07-29T15:34:05;2.05;;;1.10;;
46006;SDS011;31738;50.188;8.524;2022-07-29T15:36:31;1.55;;;1.10;;
46006;SDS011;31738;50.188;8.524;2022-07-29T15:38:56;3.45;;;1.45;;
46006;SDS011;31738;50.188;8.524;2022-07-29T15:41:22;1.45;;;1.35;;
46006;SDS011;31738;50.188;8.524;2022-07-29T15:43:47;2.00;;;1.60;;
46006;SDS011;31738;50.188;8.524;2022-07-29T15:46:14;2.58;;;1.48;;
46006;SDS011;31738;50.188;8.524;2022-07-29T15:48:59;2.25;;;1.40;;
46006;SDS011;31738;50.188;8.524;2022-07-29T15:51:25;3.08;;;1.38;;
46006;SDS011;31738;50.188;8.524;2022-07-29T15:53:50;2.55;;;1.38;;
46006;SDS011;31738;50.188;8.524;2022-07-29T15:56:16;2.78;;;1.90;;
46006;SDS011;31738;50.188;8.524;2022-07-29T15:58:42;2.78;;;1.75;;
46006;SDS011;31738;50.188;8.524;2022-07-29T16:01:07;2.40;;;1.98;;
46006;SDS011;31738;50.188;8.524;2022-07-29T16:03:33;4.30;;;1.85;;
46006;SDS011;31738;50.188;8.524;2022-07-29T16:05:58;2.45;;;2.10;;
46006;SDS011;31738;50.188;8.524;2022-07-29T16:08:24;3.33;;;2.00;;